Terminal Aerodrome Forecast
Issued by NWS

Home | Current Version | Previous Version | Text Only | Print | Product List | Glossary On
Versions: 1 2 3 4 5 6 7 8 9 10 11 12
000
FTUS45 KVEF 190520
TAFBIH
TAF
KBIH 190520Z 1906/2006 VRB05KT P6SM FEW120
     FM190800 32006KT P6SM FEW120
     FM191400 VRB05KT P6SM SKC
     FM191900 16009KT P6SM FEW120
     FM200400 VRB05KT P6SM SCT120=

USA.gov is the U.S. government's official web portal to all federal, state and local government web resources and services.